Time;durP1;ratioP1;P1;durP2;ratioP2;P2;SDS_P1;SDS_P2;PMS_P1;PMS_P2;Temp;Humidity;BMP_temperature;BMP_pressure;BME280_temperature;BME280_humidity;BME280_pressure;Samples;Min_cycle;Max_cycle;Signal;HPM_P1;HPM_P2
2022/06/16 00:01:57;;;;;;;8.38;3.00;;;;;;;;;;5077114;28;20024;-77
2022/06/16 00:04:24;;;;;;;6.07;3.55;;;;;;;;;;5076287;28;20028;-77
2022/06/16 00:06:50;;;;;;;7.15;3.03;;;;;;;;;;5081511;28;20859;-77
2022/06/16 00:09:16;;;;;;;5.10;2.85;;;;;;;;;;5079453;28;20490;-76
2022/06/16 00:11:42;;;;;;;7.00;2.70;;;;;;;;;;5074824;28;20478;-76
2022/06/16 00:14:10;;;;;;;9.10;3.58;;;;;;;;;;5072953;28;20105;-77
2022/06/16 00:16:36;;;;;;;6.78;2.90;;;;;;;;;;5072965;28;20216;-76
2022/06/16 00:19:02;;;;;;;6.47;3.30;;;;;;;;;;5072929;28;20052;-76
2022/06/16 00:21:28;;;;;;;7.82;3.42;;;;;;;;;;5070071;28;20044;-76
2022/06/16 00:23:54;;;;;;;7.13;3.08;;;;;;;;;;5076158;28;20525;-76
2022/06/16 00:26:21;;;;;;;5.43;2.63;;;;;;;;;;5081008;28;20475;-76
2022/06/16 00:28:48;;;;;;;6.32;3.13;;;;;;;;;;5078586;28;20033;-78
2022/06/16 00:31:15;;;;;;;5.68;2.80;;;;;;;;;;5080800;28;20039;-76
2022/06/16 00:33:41;;;;;;;6.50;3.22;;;;;;;;;;5084758;28;20418;-76
2022/06/16 00:36:07;;;;;;;8.20;3.30;;;;;;;;;;5077887;28;20020;-77
2022/06/16 00:38:33;;;;;;;10.10;4.00;;;;;;;;;;5079599;28;20035;-77
2022/06/16 00:41:00;;;;;;;4.88;2.67;;;;;;;;;;5076321;28;20109;-77
2022/06/16 00:43:27;;;;;;;4.53;3.05;;;;;;;;;;5084351;28;20024;-76
2022/06/16 00:45:56;;;;;;;6.10;2.95;;;;;;;;;;5070794;28;20055;-77
2022/06/16 00:48:25;;;;;;;8.25;3.28;;;;;;;;;;5076198;28;20023;-76
2022/06/16 00:51:12;;;;;;;7.43;3.38;;;;;;;;;;5076511;28;20020;-77
2022/06/16 00:53:41;;;;;;;9.32;4.05;;;;;;;;;;5077808;28;20508;-76
2022/06/16 00:56:08;;;;;;;8.88;4.10;;;;;;;;;;5084837;28;20031;-77
2022/06/16 00:58:36;;;;;;;5.50;3.08;;;;;;;;;;5072100;28;20033;-76
2022/06/16 01:01:03;;;;;;;6.15;2.80;;;;;;;;;;5069769;28;20039;-77
2022/06/16 01:06:18;;;;;;;6.00;3.13;;;;;;;;;;5073239;28;20407;-76
2022/06/16 01:08:46;;;;;;;6.47;3.60;;;;;;;;;;5061705;28;20099;-77
2022/06/16 01:13:41;;;;;;;7.68;3.20;;;;;;;;;;5052369;28;20033;-76
2022/06/16 01:14:05;;;;;;;6.53;2.97;;;;;;;;;;5067704;28;20455;-77
2022/06/16 01:16:36;;;;;;;9.05;3.65;;;;;;;;;;5073142;28;20399;-76
2022/06/16 01:19:15;;;;;;;6.95;3.33;;;;;;;;;;5060208;28;20484;-77
2022/06/16 01:21:59;;;;;;;7.47;3.28;;;;;;;;;;5070343;28;20036;-77
2022/06/16 01:24:43;;;;;;;5.20;3.38;;;;;;;;;;5083822;28;20037;-77
2022/06/16 01:27:12;;;;;;;8.23;3.67;;;;;;;;;;5072393;28;20032;-77
2022/06/16 01:29:57;;;;;;;10.57;3.42;;;;;;;;;;5073316;28;20078;-77
2022/06/16 01:32:33;;;;;;;6.82;3.20;;;;;;;;;;5068941;28;20040;-77
2022/06/16 01:35:18;;;;;;;9.23;3.60;;;;;;;;;;5064309;28;20037;-77
2022/06/16 01:37:47;;;;;;;7.70;3.08;;;;;;;;;;5036680;28;20044;-77
2022/06/16 01:40:32;;;;;;;7.25;3.15;;;;;;;;;;5063638;28;20574;-76
2022/06/16 01:43:20;;;;;;;7.00;3.28;;;;;;;;;;5057931;28;20032;-77
2022/06/16 01:45:46;;;;;;;5.85;3.28;;;;;;;;;;5069078;28;20029;-77
2022/06/16 01:48:13;;;;;;;9.93;3.65;;;;;;;;;;5073031;28;20024;-77
2022/06/16 01:50:45;;;;;;;10.23;3.13;;;;;;;;;;5073631;28;20491;-77
2022/06/16 01:53:17;;;;;;;8.13;3.22;;;;;;;;;;5068266;28;20028;-77
2022/06/16 01:56:02;;;;;;;7.53;3.40;;;;;;;;;;5061074;28;20083;-76
2022/06/16 01:58:32;;;;;;;3.83;2.65;;;;;;;;;;5073951;28;20107;-76
2022/06/16 02:00:59;;;;;;;5.78;3.10;;;;;;;;;;5073843;28;20040;-77
2022/06/16 02:03:31;;;;;;;5.13;3.22;;;;;;;;;;5065208;28;20056;-77
2022/06/16 02:05:59;;;;;;;6.07;3.10;;;;;;;;;;5079553;28;20116;-77
2022/06/16 02:08:42;;;;;;;6.85;3.00;;;;;;;;;;5057989;28;20053;-77
2022/06/16 02:11:14;;;;;;;4.18;2.95;;;;;;;;;;5068633;28;20042;-77
2022/06/16 02:13:44;;;;;;;8.32;3.42;;;;;;;;;;5062485;28;20024;-77
2022/06/16 02:16:14;;;;;;;4.95;2.95;;;;;;;;;;5067753;28;20029;-77
2022/06/16 02:18:41;;;;;;;5.18;3.20;;;;;;;;;;5066692;28;20400;-77
2022/06/16 02:21:12;;;;;;;5.38;3.10;;;;;;;;;;5074382;28;20076;-77
2022/06/16 02:23:39;;;;;;;6.75;3.28;;;;;;;;;;5078124;28;20058;-76
2022/06/16 02:26:05;;;;;;;5.88;2.78;;;;;;;;;;5071458;28;20056;-77
2022/06/16 02:28:41;;;;;;;4.57;2.60;;;;;;;;;;5066365;28;20044;-76
2022/06/16 02:31:16;;;;;;;11.02;4.00;;;;;;;;;;5064416;28;20024;-77
2022/06/16 02:33:45;;;;;;;5.43;3.75;;;;;;;;;;5084874;28;20626;-77
2022/06/16 02:36:11;;;;;;;8.93;3.50;;;;;;;;;;5069412;28;20025;-77
2022/06/16 02:38:40;;;;;;;5.82;3.00;;;;;;;;;;5067513;28;20093;-76
2022/06/16 02:41:16;;;;;;;5.70;2.58;;;;;;;;;;5059546;28;20116;-77
2022/06/16 02:43:48;;;;;;;6.05;2.88;;;;;;;;;;5069644;28;20049;-76
2022/06/16 02:46:44;;;;;;;4.40;2.58;;;;;;;;;;5080560;28;20035;-76
2022/06/16 02:49:20;;;;;;;4.45;2.60;;;;;;;;;;5036047;28;20044;-77
2022/06/16 02:51:58;;;;;;;8.05;3.00;;;;;;;;;;5062724;28;20064;-77
2022/06/16 02:54:24;;;;;;;6.45;2.70;;;;;;;;;;5077526;28;20510;-77
2022/06/16 02:56:50;;;;;;;6.72;3.47;;;;;;;;;;5070107;28;20031;-77
2022/06/16 02:59:22;;;;;;;4.88;3.17;;;;;;;;;;5071198;28;20028;-77
2022/06/16 03:01:49;;;;;;;8.32;3.40;;;;;;;;;;5069724;28;20032;-78
2022/06/16 03:04:16;;;;;;;7.20;3.20;;;;;;;;;;5076198;28;20070;-78
2022/06/16 03:06:43;;;;;;;9.88;3.30;;;;;;;;;;5080458;28;20028;-77
2022/06/16 03:09:09;;;;;;;8.95;2.92;;;;;;;;;;5058255;28;20040;-77
2022/06/16 03:11:36;;;;;;;8.10;3.83;;;;;;;;;;5064572;28;20097;-76
2022/06/16 03:14:02;;;;;;;5.60;3.22;;;;;;;;;;5075800;28;20036;-76
2022/06/16 03:16:29;;;;;;;5.40;2.83;;;;;;;;;;5029823;28;20673;-76
2022/06/16 03:18:55;;;;;;;4.93;2.75;;;;;;;;;;5062821;28;20484;-76
2022/06/16 03:21:21;;;;;;;6.53;3.40;;;;;;;;;;5061439;28;20479;-76
2022/06/16 03:23:47;;;;;;;5.95;3.20;;;;;;;;;;5079051;28;20044;-77
2022/06/16 03:26:13;;;;;;;5.38;2.88;;;;;;;;;;5065935;28;20035;-77
2022/06/16 03:28:39;;;;;;;7.45;3.63;;;;;;;;;;5071348;28;20025;-77
2022/06/16 03:31:05;;;;;;;7.20;3.35;;;;;;;;;;5070301;28;20448;-77
2022/06/16 03:33:31;;;;;;;10.45;3.78;;;;;;;;;;5069651;28;20041;-76
2022/06/16 03:35:58;;;;;;;7.80;3.78;;;;;;;;;;5083623;28;20014;-76
2022/06/16 03:38:45;;;;;;;9.10;3.45;;;;;;;;;;5065695;28;20068;-76
2022/06/16 03:41:11;;;;;;;7.13;3.63;;;;;;;;;;5054765;28;20469;-77
2022/06/16 03:43:38;;;;;;;8.75;3.75;;;;;;;;;;5048498;28;20025;-77
2022/06/16 03:46:04;;;;;;;5.88;3.22;;;;;;;;;;5075643;28;20020;-76
2022/06/16 03:48:30;;;;;;;5.93;2.85;;;;;;;;;;5079319;28;20020;-77
2022/06/16 03:50:56;;;;;;;5.63;3.05;;;;;;;;;;5089384;28;20036;-77
2022/06/16 03:53:22;;;;;;;6.70;3.63;;;;;;;;;;5059819;28;20036;-77
2022/06/16 03:55:48;;;;;;;4.65;2.65;;;;;;;;;;5072257;28;20032;-78
2022/06/16 03:58:14;;;;;;;6.60;3.97;;;;;;;;;;5070961;28;20605;-77
2022/06/16 04:00:41;;;;;;;7.93;3.10;;;;;;;;;;5059216;28;20028;-77
2022/06/16 04:05:52;;;;;;;10.15;2.70;;;;;;;;;;5069437;28;20114;-78
2022/06/16 04:08:19;;;;;;;4.50;2.58;;;;;;;;;;5074620;28;20046;-77
2022/06/16 04:10:46;;;;;;;3.47;2.20;;;;;;;;;;5051358;28;20608;-77
2022/06/16 04:13:12;;;;;;;6.53;2.58;;;;;;;;;;5084795;28;20035;-77
2022/06/16 04:15:38;;;;;;;5.55;2.50;;;;;;;;;;5074968;28;20037;-77
2022/06/16 04:18:05;;;;;;;8.20;2.55;;;;;;;;;;5064497;28;20048;-77
2022/06/16 04:20:31;;;;;;;6.47;2.53;;;;;;;;;;5084428;28;20068;-77
2022/06/16 04:22:57;;;;;;;7.35;2.80;;;;;;;;;;5060688;28;20383;-77
2022/06/16 04:25:30;;;;;;;6.60;3.03;;;;;;;;;;5068762;28;20044;-76
2022/06/16 04:27:56;;;;;;;6.85;2.92;;;;;;;;;;5055548;28;20188;-76
2022/06/16 04:30:22;;;;;;;8.65;3.10;;;;;;;;;;5065294;28;20039;-76
2022/06/16 04:32:48;;;;;;;8.85;3.28;;;;;;;;;;5058159;28;20037;-76
2022/06/16 04:35:14;;;;;;;9.55;3.10;;;;;;;;;;5062668;28;20033;-75
2022/06/16 04:37:40;;;;;;;17.33;8.90;;;;;;;;;;5069274;28;20035;-77
2022/06/16 04:40:07;;;;;;;27.48;14.25;;;;;;;;;;5043763;28;20065;-75
2022/06/16 04:42:33;;;;;;;7.25;3.92;;;;;;;;;;5060637;28;20021;-75
2022/06/16 04:44:59;;;;;;;6.65;2.97;;;;;;;;;;5065209;28;20408;-77
2022/06/16 04:47:25;;;;;;;5.88;2.85;;;;;;;;;;5065415;28;20561;-78
2022/06/16 04:49:51;;;;;;;7.72;3.05;;;;;;;;;;5067138;28;20396;-77
2022/06/16 04:52:18;;;;;;;6.85;2.80;;;;;;;;;;5066618;28;20384;-80
2022/06/16 04:54:45;;;;;;;6.13;2.50;;;;;;;;;;5066376;28;20039;-76
2022/06/16 04:57:11;;;;;;;8.10;2.85;;;;;;;;;;5048926;28;20452;-76
2022/06/16 04:59:37;;;;;;;8.30;2.90;;;;;;;;;;5060164;28;20473;-76
2022/06/16 05:02:04;;;;;;;7.00;3.35;;;;;;;;;;5069902;28;20078;-75
2022/06/16 05:04:30;;;;;;;8.05;3.22;;;;;;;;;;5056544;28;20029;-76
2022/06/16 05:06:56;;;;;;;7.55;3.65;;;;;;;;;;5064442;28;20028;-77
2022/06/16 05:09:23;;;;;;;8.05;4.28;;;;;;;;;;5068231;28;20037;-76
2022/06/16 05:11:49;;;;;;;7.07;3.60;;;;;;;;;;5071929;28;20040;-80
2022/06/16 05:14:15;;;;;;;8.98;4.35;;;;;;;;;;5072583;28;20052;-82
2022/06/16 05:16:41;;;;;;;8.25;3.60;;;;;;;;;;5077154;28;20028;-80
2022/06/16 05:19:08;;;;;;;7.70;3.67;;;;;;;;;;5075495;28;20401;-81
2022/06/16 05:21:34;;;;;;;8.70;3.00;;;;;;;;;;5075310;28;20056;-80
2022/06/16 05:24:00;;;;;;;10.82;3.35;;;;;;;;;;5070967;28;20033;-79
2022/06/16 05:26:30;;;;;;;10.00;3.83;;;;;;;;;;5056012;28;20048;-80
2022/06/16 05:28:56;;;;;;;9.27;4.18;;;;;;;;;;5072775;28;20035;-81
2022/06/16 05:31:23;;;;;;;7.72;3.58;;;;;;;;;;5079118;28;20090;-80
2022/06/16 05:33:49;;;;;;;9.85;4.00;;;;;;;;;;5077226;28;20021;-81
2022/06/16 05:36:17;;;;;;;9.63;3.42;;;;;;;;;;5080820;28;20086;-82
2022/06/16 05:38:43;;;;;;;8.65;3.53;;;;;;;;;;5083480;28;20092;-79
2022/06/16 05:41:14;;;;;;;9.70;3.08;;;;;;;;;;5068327;28;20047;-80
2022/06/16 05:43:41;;;;;;;8.50;3.50;;;;;;;;;;5076889;28;20048;-75
2022/06/16 05:46:08;;;;;;;9.75;2.95;;;;;;;;;;5058237;28;20036;-73
2022/06/16 05:48:34;;;;;;;7.50;2.90;;;;;;;;;;5068586;28;20401;-73
2022/06/16 05:51:05;;;;;;;10.80;2.90;;;;;;;;;;5062809;28;20036;-74
2022/06/16 05:53:31;;;;;;;6.97;2.95;;;;;;;;;;5055623;28;20040;-73
2022/06/16 05:55:57;;;;;;;9.23;3.15;;;;;;;;;;5071705;28;20028;-73
2022/06/16 05:58:23;;;;;;;57.88;35.35;;;;;;;;;;5070350;28;20028;-73
2022/06/16 06:00:49;;;;;;;8.85;4.10;;;;;;;;;;5048800;28;20040;-74
2022/06/16 06:03:15;;;;;;;11.48;3.00;;;;;;;;;;5073049;28;20040;-73
2022/06/16 06:05:41;;;;;;;5.90;3.15;;;;;;;;;;5073012;28;20028;-74
2022/06/16 06:16:26;;;;;;;8.75;3.00;;;;;;;;;;5056353;28;20396;-75
2022/06/16 06:18:56;;;;;;;6.05;3.00;;;;;;;;;;5055385;28;20086;-74
2022/06/16 06:21:58;;;;;;;6.68;2.55;;;;;;;;;;5056799;28;20446;-74
2022/06/16 06:24:08;;;;;;;7.82;2.75;;;;;;;;;;5057696;28;20473;-74
2022/06/16 06:26:34;;;;;;;8.73;2.55;;;;;;;;;;5058497;28;20024;-75
2022/06/16 06:29:01;;;;;;;3.63;1.50;;;;;;;;;;5061269;28;20527;-74
2022/06/16 06:31:27;;;;;;;7.70;2.00;;;;;;;;;;5064549;28;20420;-74
2022/06/16 06:33:53;;;;;;;6.38;2.13;;;;;;;;;;5066215;28;20032;-74
2022/06/16 06:36:19;;;;;;;7.95;3.20;;;;;;;;;;5063215;28;20040;-73
2022/06/16 06:38:45;;;;;;;5.43;1.13;;;;;;;;;;5062712;28;20040;-75
2022/06/16 06:41:11;;;;;;;3.67;1.00;;;;;;;;;;5063312;28;20086;-75
2022/06/16 06:43:37;;;;;;;5.50;1.40;;;;;;;;;;5062197;28;20040;-75
2022/06/16 06:46:03;;;;;;;5.72;1.58;;;;;;;;;;5060533;28;20076;-75
2022/06/16 06:48:29;;;;;;;8.75;1.30;;;;;;;;;;5065795;28;20037;-75
2022/06/16 06:50:55;;;;;;;5.10;1.10;;;;;;;;;;5055822;28;20033;-75
2022/06/16 06:53:21;;;;;;;4.40;1.10;;;;;;;;;;5062416;28;20043;-77
2022/06/16 06:55:48;;;;;;;4.60;1.15;;;;;;;;;;5047833;28;20032;-76
2022/06/16 06:58:18;;;;;;;4.70;1.73;;;;;;;;;;5049447;28;20066;-76
2022/06/16 07:00:44;;;;;;;3.25;1.35;;;;;;;;;;5057770;28;20060;-77
2022/06/16 07:03:11;;;;;;;2.78;1.20;;;;;;;;;;5073989;28;20051;-79
2022/06/16 07:05:38;;;;;;;4.88;1.00;;;;;;;;;;5051798;28;20029;-79
2022/06/16 07:08:04;;;;;;;6.32;1.52;;;;;;;;;;5051436;28;20082;-79
2022/06/16 07:10:30;;;;;;;3.75;0.60;;;;;;;;;;5062003;28;20033;-80
2022/06/16 07:12:56;;;;;;;4.88;1.38;;;;;;;;;;5067584;28;20039;-80
2022/06/16 07:15:22;;;;;;;4.80;1.10;;;;;;;;;;5046413;28;20078;-79
2022/06/16 07:17:48;;;;;;;3.63;0.77;;;;;;;;;;5070597;28;20033;-79
2022/06/16 07:20:16;;;;;;;7.70;1.05;;;;;;;;;;5064994;28;20495;-80
2022/06/16 07:22:43;;;;;;;2.55;0.70;;;;;;;;;;5068977;28;20029;-78
2022/06/16 07:25:09;;;;;;;9.20;1.17;;;;;;;;;;5070679;28;20029;-78
2022/06/16 07:27:35;;;;;;;2.92;0.70;;;;;;;;;;5055783;28;20090;-79
2022/06/16 07:30:02;;;;;;;8.20;2.35;;;;;;;;;;5065614;28;20036;-79
2022/06/16 07:32:28;;;;;;;3.92;0.80;;;;;;;;;;5070241;28;20365;-79
2022/06/16 07:34:54;;;;;;;4.43;1.17;;;;;;;;;;5052425;28;20460;-79
2022/06/16 07:37:20;;;;;;;6.85;1.38;;;;;;;;;;5069203;28;20049;-78
2022/06/16 07:39:46;;;;;;;3.53;1.35;;;;;;;;;;5069032;28;20032;-79
2022/06/16 07:42:13;;;;;;;5.93;1.85;;;;;;;;;;5061106;28;20064;-79
2022/06/16 07:44:39;;;;;;;6.18;1.65;;;;;;;;;;5068115;28;20499;-79
2022/06/16 07:47:06;;;;;;;6.68;1.77;;;;;;;;;;5072697;28;20028;-80
2022/06/16 07:49:32;;;;;;;5.53;2.08;;;;;;;;;;5062610;28;20082;-80
2022/06/16 07:51:59;;;;;;;4.45;1.63;;;;;;;;;;5056472;28;20485;-79
2022/06/16 07:54:25;;;;;;;5.20;1.35;;;;;;;;;;5069476;28;20042;-79
2022/06/16 07:56:52;;;;;;;4.82;1.30;;;;;;;;;;5053196;28;20146;-80
2022/06/16 07:59:18;;;;;;;4.57;1.45;;;;;;;;;;5067279;28;20024;-79
2022/06/16 08:01:44;;;;;;;3.28;1.35;;;;;;;;;;5058291;28;20048;-75
2022/06/16 08:04:11;;;;;;;2.63;0.90;;;;;;;;;;5057819;28;20094;-76
2022/06/16 08:06:38;;;;;;;4.82;1.40;;;;;;;;;;5052920;28;20627;-75
2022/06/16 08:09:04;;;;;;;3.92;1.33;;;;;;;;;;5066614;28;20021;-75
2022/06/16 08:14:16;;;;;;;3.80;1.10;;;;;;;;;;5073375;28;20532;-76
2022/06/16 08:16:42;;;;;;;3.75;1.63;;;;;;;;;;5063825;28;20090;-75
2022/06/16 08:19:08;;;;;;;5.35;1.30;;;;;;;;;;5069774;28;20461;-75
2022/06/16 08:21:34;;;;;;;5.07;1.73;;;;;;;;;;5077641;28;20036;-75
2022/06/16 08:24:01;;;;;;;2.92;1.38;;;;;;;;;;5066118;28;20515;-75
2022/06/16 08:26:27;;;;;;;5.35;1.45;;;;;;;;;;5071603;28;20032;-75
2022/06/16 08:28:54;;;;;;;4.20;1.80;;;;;;;;;;5076842;28;20461;-75
2022/06/16 08:31:21;;;;;;;4.05;1.45;;;;;;;;;;5074833;28;20067;-75
2022/06/16 08:33:48;;;;;;;3.60;1.30;;;;;;;;;;5086600;28;20079;-75
2022/06/16 08:36:15;;;;;;;4.90;1.80;;;;;;;;;;5087191;28;20063;-75
2022/06/16 08:38:41;;;;;;;8.82;2.72;;;;;;;;;;5066679;28;20017;-76
2022/06/16 08:41:13;;;;;;;5.65;2.83;;;;;;;;;;5057247;28;20033;-76
2022/06/16 08:43:54;;;;;;;3.90;1.23;;;;;;;;;;5063357;28;20029;-79
2022/06/16 08:46:21;;;;;;;3.72;1.58;;;;;;;;;;5053582;28;20032;-78
2022/06/16 08:48:47;;;;;;;5.68;1.50;;;;;;;;;;5075802;28;20042;-79
2022/06/16 08:51:33;;;;;;;2.38;1.50;;;;;;;;;;5074330;28;20056;-81
2022/06/16 08:54:08;;;;;;;3.60;1.58;;;;;;;;;;5067836;28;20035;-79
2022/06/16 08:56:53;;;;;;;6.82;2.20;;;;;;;;;;5087246;28;20031;-79
2022/06/16 08:59:31;;;;;;;4.13;1.60;;;;;;;;;;5074449;28;20025;-80
2022/06/16 09:02:06;;;;;;;4.85;1.52;;;;;;;;;;5075351;28;20068;-81
2022/06/16 09:04:36;;;;;;;3.58;1.58;;;;;;;;;;5052407;28;20025;-79
2022/06/16 09:07:11;;;;;;;6.35;1.70;;;;;;;;;;5088713;28;20028;-79
2022/06/16 09:10:14;;;;;;;2.95;1.30;;;;;;;;;;5082838;28;20383;-80
2022/06/16 09:12:59;;;;;;;6.32;1.75;;;;;;;;;;5079522;28;20031;-79
2022/06/16 09:15:43;;;;;;;2.60;1.45;;;;;;;;;;5077220;28;20485;-80
2022/06/16 09:18:17;;;;;;;4.10;1.35;;;;;;;;;;5064345;28;20659;-80
2022/06/16 09:20:50;;;;;;;3.47;1.55;;;;;;;;;;5063585;28;20789;-78
2022/06/16 09:23:16;;;;;;;11.23;1.40;;;;;;;;;;5065141;28;20025;-77
2022/06/16 09:25:53;;;;;;;5.35;1.85;;;;;;;;;;5069730;28;20032;-77
2022/06/16 09:28:31;;;;;;;5.63;2.22;;;;;;;;;;5061448;28;20685;-75
2022/06/16 09:30:59;;;;;;;2.75;1.48;;;;;;;;;;5071182;28;20033;-77
2022/06/16 09:33:30;;;;;;;3.88;1.70;;;;;;;;;;5058378;28;20038;-77
2022/06/16 09:36:01;;;;;;;6.32;1.75;;;;;;;;;;5053715;28;20033;-75
2022/06/16 09:38:31;;;;;;;5.40;1.42;;;;;;;;;;5064310;28;20035;-76
2022/06/16 09:42:31;;;;;;;5.43;1.80;;;;;;;;;;5071282;28;20037;-76
2022/06/16 09:43:53;;;;;;;5.88;1.90;;;;;;;;;;5083801;28;20139;-76
2022/06/16 09:46:22;;;;;;;3.78;1.73;;;;;;;;;;5056499;28;20040;-76
2022/06/16 09:48:53;;;;;;;7.75;1.50;;;;;;;;;;5069011;28;20096;-77
2022/06/16 09:51:22;;;;;;;4.15;1.52;;;;;;;;;;5058268;28;20363;-75
2022/06/16 09:53:51;;;;;;;5.28;2.10;;;;;;;;;;5045694;28;20036;-75
2022/06/16 09:56:27;;;;;;;5.03;2.25;;;;;;;;;;5074257;28;20024;-75
2022/06/16 09:59:01;;;;;;;5.95;1.60;;;;;;;;;;5068213;28;20593;-75
2022/06/16 10:01:30;;;;;;;6.45;1.88;;;;;;;;;;5069329;28;20033;-75
2022/06/16 10:04:00;;;;;;;5.32;3.67;;;;;;;;;;5067514;28;20039;-77
2022/06/16 10:06:48;;;;;;;4.15;1.85;;;;;;;;;;5060364;28;20033;-75
2022/06/16 10:09:23;;;;;;;7.20;1.75;;;;;;;;;;5051729;28;20024;-76
2022/06/16 10:12:00;;;;;;;9.15;2.67;;;;;;;;;;5058427;28;20440;-77
2022/06/16 10:14:38;;;;;;;5.22;1.83;;;;;;;;;;5057597;28;20046;-75
2022/06/16 10:17:13;;;;;;;5.30;1.63;;;;;;;;;;5068946;28;20028;-77
2022/06/16 10:19:43;;;;;;;5.50;2.30;;;;;;;;;;5057753;28;20057;-77
2022/06/16 10:22:10;;;;;;;5.82;1.50;;;;;;;;;;5043460;28;20085;-77
2022/06/16 10:24:42;;;;;;;4.57;2.22;;;;;;;;;;5069642;28;20056;-77
2022/06/16 10:27:10;;;;;;;5.97;1.63;;;;;;;;;;5055506;28;20087;-76
2022/06/16 10:29:36;;;;;;;6.63;2.55;;;;;;;;;;5055783;28;20033;-77
2022/06/16 10:32:04;;;;;;;5.70;2.10;;;;;;;;;;5056596;28;20036;-77
2022/06/16 10:34:33;;;;;;;5.10;1.45;;;;;;;;;;5055142;28;20112;-76
2022/06/16 10:37:03;;;;;;;3.67;1.88;;;;;;;;;;5077773;28;20090;-77
2022/06/16 10:39:40;;;;;;;3.78;1.45;;;;;;;;;;5056307;28;20032;-77
2022/06/16 10:42:42;;;;;;;3.88;2.00;;;;;;;;;;5055755;28;20048;-76
2022/06/16 10:45:14;;;;;;;5.88;1.67;;;;;;;;;;4944262;28;20027;-77
2022/06/16 10:47:45;;;;;;;4.15;2.00;;;;;;;;;;5036788;28;20128;-76
2022/06/16 10:50:17;;;;;;;4.15;2.00;;;;;;;;;;5057812;28;20473;-82
2022/06/16 10:52:42;;;;;;;;;;;;;;;;;;5057217;28;20072;-76
2022/06/16 10:55:11;;;;;;;5.03;1.77;;;;;;;;;;5063302;28;20821;-76
2022/06/16 10:57:42;;;;;;;9.40;2.10;;;;;;;;;;5063073;28;20037;-77
2022/06/16 11:00:13;;;;;;;6.70;1.60;;;;;;;;;;5057745;28;20033;-77
2022/06/16 11:02:53;;;;;;;3.35;1.52;;;;;;;;;;5081987;28;20104;-75
2022/06/16 11:05:19;;;;;;;4.20;1.63;;;;;;;;;;5055041;28;20052;-77
2022/06/16 11:07:45;;;;;;;3.22;1.42;;;;;;;;;;5059041;28;20063;-76
2022/06/16 11:10:17;;;;;;;2.80;1.33;;;;;;;;;;5066930;28;20028;-75
2022/06/16 11:12:47;;;;;;;3.47;1.65;;;;;;;;;;5051722;28;20036;-74
2022/06/16 11:15:23;;;;;;;6.07;1.60;;;;;;;;;;5050986;28;20542;-74
2022/06/16 11:17:54;;;;;;;7.10;1.40;;;;;;;;;;5055174;28;20049;-74
2022/06/16 11:20:20;;;;;;;4.15;1.48;;;;;;;;;;5056578;28;20537;-74
2022/06/16 11:22:48;;;;;;;3.78;1.58;;;;;;;;;;5061182;28;20107;-74
2022/06/16 11:25:17;;;;;;;4.43;1.30;;;;;;;;;;5055956;28;20020;-74
2022/06/16 11:27:47;;;;;;;4.63;1.33;;;;;;;;;;5070856;28;20028;-74
2022/06/16 11:30:34;;;;;;;4.30;1.80;;;;;;;;;;5061986;28;20029;-74
2022/06/16 11:33:01;;;;;;;5.55;1.25;;;;;;;;;;5061983;28;20477;-74
2022/06/16 11:35:38;;;;;;;4.00;1.52;;;;;;;;;;5066545;28;20100;-74
2022/06/16 11:38:12;;;;;;;4.25;1.80;;;;;;;;;;5052378;28;20031;-74
2022/06/16 11:41:11;;;;;;;3.67;1.65;;;;;;;;;;5061539;28;20029;-74
2022/06/16 11:43:52;;;;;;;3.25;1.40;;;;;;;;;;5018052;28;20383;-74
2022/06/16 11:46:23;;;;;;;5.40;1.58;;;;;;;;;;5063342;28;20032;-74
2022/06/16 11:48:51;;;;;;;4.35;1.52;;;;;;;;;;5057865;28;20120;-73
2022/06/16 11:51:20;;;;;;;5.82;1.85;;;;;;;;;;5066788;28;20036;-74
2022/06/16 11:54:06;;;;;;;4.63;1.35;;;;;;;;;;5074034;28;20032;-74
2022/06/16 11:56:32;;;;;;;2.67;1.40;;;;;;;;;;5074631;28;20041;-74
2022/06/16 11:59:05;;;;;;;4.47;1.70;;;;;;;;;;5074492;28;20039;-74
2022/06/16 12:01:40;;;;;;;9.05;1.73;;;;;;;;;;5064576;28;20588;-74
2022/06/16 12:04:18;;;;;;;3.53;1.48;;;;;;;;;;5059521;28;20027;-74
2022/06/16 12:06:53;;;;;;;4.90;1.73;;;;;;;;;;5060250;28;20025;-74
2022/06/16 12:09:30;;;;;;;5.20;1.50;;;;;;;;;;5061638;28;20115;-74
2022/06/16 12:12:15;;;;;;;8.40;1.67;;;;;;;;;;5070888;28;20322;-74
2022/06/16 12:15:07;;;;;;;4.15;1.63;;;;;;;;;;5070156;28;20047;-74
2022/06/16 12:17:40;;;;;;;4.30;1.50;;;;;;;;;;5069726;28;20428;-75
2022/06/16 12:20:21;;;;;;;4.10;2.30;;;;;;;;;;5075599;28;20049;-74
2022/06/16 12:22:53;;;;;;;4.38;1.50;;;;;;;;;;5062011;28;20524;-75
2022/06/16 12:25:25;;;;;;;2.70;1.67;;;;;;;;;;5054049;28;20525;-75
2022/06/16 12:27:55;;;;;;;5.22;1.73;;;;;;;;;;5054197;28;20064;-75
2022/06/16 12:30:24;;;;;;;5.05;1.50;;;;;;;;;;5075726;28;20033;-75
2022/06/16 12:32:53;;;;;;;3.40;1.67;;;;;;;;;;5063510;28;20106;-74
2022/06/16 12:35:26;;;;;;;4.15;1.90;;;;;;;;;;5086412;28;20028;-75
2022/06/16 12:37:57;;;;;;;7.35;2.30;;;;;;;;;;5071499;28;20069;-75
2022/06/16 12:40:30;;;;;;;5.93;1.98;;;;;;;;;;5071386;28;20040;-75
2022/06/16 12:42:58;;;;;;;6.00;1.80;;;;;;;;;;5069241;28;20029;-75
2022/06/16 12:45:28;;;;;;;5.40;2.08;;;;;;;;;;5065705;28;20090;-76
2022/06/16 12:47:57;;;;;;;6.85;1.80;;;;;;;;;;5065244;28;20413;-75
2022/06/16 12:50:27;;;;;;;4.88;1.65;;;;;;;;;;5061267;28;20044;-74
2022/06/16 12:52:57;;;;;;;2.83;1.50;;;;;;;;;;5073113;28;20032;-75
2022/06/16 12:55:26;;;;;;;5.55;1.52;;;;;;;;;;5082145;28;20028;-75
2022/06/16 12:58:00;;;;;;;3.47;1.30;;;;;;;;;;5067379;28;20036;-75
2022/06/16 13:00:29;;;;;;;5.15;1.80;;;;;;;;;;5052481;28;20571;-75
2022/06/16 13:03:07;;;;;;;3.22;1.60;;;;;;;;;;5072322;28;20057;-75
2022/06/16 13:05:34;;;;;;;3.28;1.80;;;;;;;;;;5061005;28;20024;-75
2022/06/16 13:08:02;;;;;;;8.05;5.93;;;;;;;;;;5066036;28;20055;-73
2022/06/16 13:10:28;;;;;;;5.07;2.25;;;;;;;;;;5066900;28;20035;-73
2022/06/16 13:12:58;;;;;;;4.65;2.13;;;;;;;;;;5071110;28;20430;-72
2022/06/16 13:15:24;;;;;;;4.20;1.83;;;;;;;;;;5070005;28;20017;-73
2022/06/16 13:17:56;;;;;;;4.47;1.60;;;;;;;;;;5084040;28;20059;-75
2022/06/16 13:20:26;;;;;;;5.65;1.55;;;;;;;;;;5069301;28;20059;-73
2022/06/16 13:22:57;;;;;;;3.35;1.40;;;;;;;;;;5061735;28;20086;-73
2022/06/16 13:25:38;;;;;;;3.35;1.83;;;;;;;;;;5055640;28;20021;-73
2022/06/16 13:28:06;;;;;;;7.38;2.45;;;;;;;;;;5064610;28;20024;-73
2022/06/16 13:30:34;;;;;;;3.05;1.50;;;;;;;;;;5069599;28;20051;-73
2022/06/16 13:33:07;;;;;;;3.05;1.50;;;;;;;;;;5061028;28;20036;-73
2022/06/16 13:35:47;;;;;;;2.97;1.73;;;;;;;;;;5068901;28;20027;-73
2022/06/16 13:38:13;;;;;;;4.38;1.77;;;;;;;;;;5081703;28;20123;-75
2022/06/16 13:40:40;;;;;;;5.82;1.83;;;;;;;;;;5066250;28;20417;-74
2022/06/16 13:43:08;;;;;;;3.25;1.83;;;;;;;;;;5038693;28;20040;-75
2022/06/16 13:45:34;;;;;;;3.08;1.60;;;;;;;;;;5073014;28;20107;-74
2022/06/16 13:48:08;;;;;;;5.50;1.88;;;;;;;;;;5065423;28;20107;-74
2022/06/16 13:50:44;;;;;;;5.43;1.30;;;;;;;;;;5061748;28;20502;-74
2022/06/16 13:53:11;;;;;;;3.30;1.50;;;;;;;;;;5053320;28;20396;-74
2022/06/16 13:55:42;;;;;;;3.85;1.67;;;;;;;;;;5074946;28;20029;-74
2022/06/16 13:58:11;;;;;;;3.67;1.30;;;;;;;;;;5074896;28;20017;-74
2022/06/16 14:00:39;;;;;;;4.57;1.50;;;;;;;;;;5069962;28;20032;-74
2022/06/16 14:03:06;;;;;;;4.13;1.67;;;;;;;;;;5052665;28;20045;-74
2022/06/16 14:05:33;;;;;;;2.92;1.35;;;;;;;;;;5056709;28;20024;-75
2022/06/16 14:08:07;;;;;;;3.75;1.65;;;;;;;;;;5051043;28;20052;-74
2022/06/16 14:10:45;;;;;;;3.58;1.30;;;;;;;;;;5062867;28;20024;-74
2022/06/16 14:13:14;;;;;;;8.35;1.50;;;;;;;;;;5066760;28;20456;-74
2022/06/16 14:16:01;;;;;;;3.88;1.42;;;;;;;;;;5061182;28;20037;-74
2022/06/16 14:18:46;;;;;;;4.32;2.00;;;;;;;;;;5044611;28;20480;-74
2022/06/16 14:21:15;;;;;;;5.20;1.40;;;;;;;;;;5062047;28;20066;-74
2022/06/16 14:23:44;;;;;;;3.20;1.30;;;;;;;;;;5066013;28;20060;-74
2022/06/16 14:26:19;;;;;;;4.03;1.45;;;;;;;;;;5067427;28;20116;-74
2022/06/16 14:28:46;;;;;;;4.65;1.80;;;;;;;;;;5079871;28;20082;-74
2022/06/16 14:31:16;;;;;;;3.70;1.55;;;;;;;;;;5061484;28;20698;-75
2022/06/16 14:33:45;;;;;;;2.70;1.58;;;;;;;;;;5083654;28;20032;-75
2022/06/16 14:36:11;;;;;;;3.38;1.80;;;;;;;;;;5054174;28;20483;-75
2022/06/16 14:38:55;;;;;;;5.25;1.80;;;;;;;;;;5072309;28;20025;-75
2022/06/16 14:41:38;;;;;;;2.97;1.50;;;;;;;;;;5067245;28;20106;-72
2022/06/16 14:44:13;;;;;;;3.15;1.70;;;;;;;;;;5068279;28;20035;-73
2022/06/16 14:46:57;;;;;;;5.88;1.75;;;;;;;;;;5060488;28;20479;-74
2022/06/16 14:49:32;;;;;;;7.82;1.45;;;;;;;;;;5061745;28;20039;-74
2022/06/16 14:52:00;;;;;;;2.88;1.42;;;;;;;;;;5060724;28;20036;-74
2022/06/16 14:54:37;;;;;;;8.07;2.33;;;;;;;;;;5054829;28;20078;-74
2022/06/16 14:57:03;;;;;;;4.32;1.70;;;;;;;;;;5034635;28;20029;-74
2022/06/16 14:59:34;;;;;;;4.07;1.70;;;;;;;;;;5046718;28;20032;-74
2022/06/16 15:02:02;;;;;;;4.40;1.33;;;;;;;;;;5061598;28;20037;-74
2022/06/16 15:04:31;;;;;;;3.42;1.38;;;;;;;;;;5056522;28;20074;-74
2022/06/16 15:06:58;;;;;;;2.20;1.40;;;;;;;;;;5063108;28;20039;-74
2022/06/16 15:09:38;;;;;;;4.57;1.40;;;;;;;;;;5047211;28;20024;-74
2022/06/16 15:12:04;;;;;;;4.43;1.70;;;;;;;;;;5070004;28;20078;-74
2022/06/16 15:14:31;;;;;;;5.18;1.40;;;;;;;;;;5049183;28;20159;-74
2022/06/16 15:19:48;;;;;;;6.75;1.50;;;;;;;;;;5057036;28;20038;-74
2022/06/16 15:22:14;;;;;;;3.85;1.73;;;;;;;;;;5054553;28;20035;-74